University Park, Florida
Current Conditions -  °F | °C
As of 4:53 AM on Sunday 26 Oct 2014 (Local Time) from KSRQ Reporting Station
Clear Clear  
Wind Chill: 59°   Ceiling: Unl
Heat Index: 59°   Visibility: 10mi
Dew Point: 57°   Wind: 5mph
Humidity: 93%   Direction: 50°NE
Pressure: 29.95"   Gusts: NA
Location:  27.3998°N, 82.4742°W
Report Text: KSRQ 260853Z 05004KT 10SM CLR 15/14 A2995 RMK AO2 SLP139 T01500139 58010
Loading
Personal Weather Stations






























Interactive Weather Map
Tropical Storm Tracking
New forecast layout! Learn more

10-Day Weather Forecast

Advertisements
Track Severe Weather on mobile